Time;durP1;ratioP1;P1;durP2;ratioP2;P2;SDS_P1;SDS_P2;PMS_P1;PMS_P2;Temp;Humidity;BMP_temperature;BMP_pressure;BME280_temperature;BME280_humidity;BME280_pressure;Samples;Min_cycle;Max_cycle;Signal;HPM_P1;HPM_P2
2021/12/21 00:02:24;;;;;;;13.85;6.80;;;-0.30;99.90;;;;;;5126523;27;20066;-68
2021/12/21 00:04:50;;;;;;;14.93;6.55;;;-0.30;99.90;;;;;;5131932;27;20039;-70
2021/12/21 00:07:15;;;;;;;11.02;6.28;;;-0.30;99.90;;;;;;5128635;27;20046;-70
2021/12/21 00:09:41;;;;;;;12.90;6.63;;;-0.30;99.90;;;;;;5128609;27;20050;-71
2021/12/21 00:12:08;;;;;;;14.90;7.03;;;-0.30;99.90;;;;;;5139367;27;20482;-68
2021/12/21 00:14:56;;;;;;;20.13;7.05;;;-0.30;99.90;;;;;;5149541;27;20039;-68
2021/12/21 00:17:45;;;;;;;11.45;6.28;;;-0.30;99.90;;;;;;5131632;27;20079;-71
2021/12/21 00:25:21;;;;;;;11.50;5.88;;;-0.50;99.90;;;;;;5128173;27;20062;-71
2021/12/21 00:27:51;;;;;;;10.07;5.97;;;-0.60;99.90;;;;;;5128971;27;20053;-71
2021/12/21 00:30:17;;;;;;;12.10;6.32;;;-0.60;99.90;;;;;;5128128;27;20031;-70
2021/12/21 00:32:44;;;;;;;13.75;6.07;;;-0.60;99.90;;;;;;5130952;27;20038;-71
2021/12/21 00:35:10;;;;;;;11.15;6.40;;;-0.40;99.90;;;;;;5130913;27;20476;-71
2021/12/21 00:37:39;;;;;;;11.18;6.20;;;-0.60;99.90;;;;;;5129700;27;20142;-68
2021/12/21 00:40:05;;;;;;;9.77;6.07;;;-0.60;99.90;;;;;;5124749;28;20043;-68
2021/12/21 00:42:30;;;;;;;9.32;5.95;;;-0.60;99.90;;;;;;5126831;27;20084;-71
2021/12/21 00:44:56;;;;;;;12.77;6.18;;;-0.70;99.90;;;;;;5130798;27;20043;-71
2021/12/21 00:47:22;;;;;;;11.00;6.07;;;-0.70;99.90;;;;;;5149249;27;20069;-71
2021/12/21 00:49:57;;;;;;;9.90;5.88;;;-0.80;99.90;;;;;;5125174;27;20075;-71
2021/12/21 00:52:23;;;;;;;11.60;6.30;;;-0.80;99.90;;;;;;5126976;27;20039;-70
2021/12/21 00:54:48;;;;;;;14.50;6.25;;;-0.80;99.90;;;;;;5125510;27;20084;-70
2021/12/21 00:57:14;;;;;;;11.10;5.80;;;-0.80;99.90;;;;;;5130419;27;20106;-71
2021/12/21 00:59:39;;;;;;;10.52;4.65;;;-0.80;99.90;;;;;;5148889;27;20122;-70
2021/12/21 01:02:05;;;;;;;8.45;4.80;;;-0.80;99.90;;;;;;5126878;27;20057;-71
2021/12/21 01:04:37;;;;;;;11.20;5.22;;;-0.80;99.90;;;;;;5124617;27;20100;-70
2021/12/21 01:07:13;;;;;;;9.35;4.93;;;-0.90;99.90;;;;;;5128321;27;20501;-70
2021/12/21 01:17:50;;;;;;;11.40;5.25;;;-0.80;99.90;;;;;;5133177;27;20059;-71
2021/12/21 01:20:37;;;;;;;9.55;5.30;;;-0.80;99.90;;;;;;5128476;27;20086;-71
2021/12/21 01:25:47;;;;;;;12.85;6.80;;;-0.80;99.90;;;;;;5153258;27;20043;-71
2021/12/21 01:31:15;;;;;;;13.13;6.10;;;-0.80;99.90;;;;;;5143989;27;20122;-71
2021/12/21 01:33:48;;;;;;;14.95;6.40;;;-0.80;99.90;;;;;;5132241;27;20099;-71
2021/12/21 01:36:31;;;;;;;11.90;6.15;;;-0.80;99.90;;;;;;5128990;27;20043;-71
2021/12/21 01:39:53;;;;;;;11.68;6.35;;;-0.80;99.90;;;;;;5128278;27;20039;-71
2021/12/21 01:42:01;;;;;;;12.77;6.82;;;-0.80;99.90;;;;;;5148994;27;20454;-68
2021/12/21 01:49:50;;;;;;;12.88;6.80;;;-0.80;99.90;;;;;;5131559;27;20081;-69
2021/12/21 01:52:19;;;;;;;16.42;6.80;;;-0.80;99.90;;;;;;5131486;27;20130;-68
2021/12/21 01:54:45;;;;;;;14.10;6.35;;;-0.90;99.90;;;;;;5134068;27;20054;-71
2021/12/21 01:57:11;;;;;;;12.23;6.75;;;-0.90;99.90;;;;;;5148449;27;20045;-71
2021/12/21 01:59:40;;;;;;;11.73;5.68;;;-0.90;99.90;;;;;;5130773;27;20094;-71
2021/12/21 02:02:08;;;;;;;17.67;6.28;;;-0.90;99.90;;;;;;5150128;27;20056;-68
2021/12/21 02:04:35;;;;;;;13.95;7.00;;;-1.00;99.90;;;;;;5133766;27;20439;-71
2021/12/21 02:07:01;;;;;;;11.30;6.65;;;-1.00;99.90;;;;;;5153497;27;20118;-71
2021/12/21 02:09:35;;;;;;;14.52;5.80;;;-1.00;99.90;;;;;;5130048;27;20054;-71
2021/12/21 02:12:01;;;;;;;12.00;5.53;;;-1.00;99.90;;;;;;5143908;27;20122;-71
2021/12/21 02:14:27;;;;;;;10.35;5.25;;;-1.00;99.90;;;;;;5150746;27;20829;-68
2021/12/21 02:19:55;;;;;;;9.48;4.55;;;-1.00;99.90;;;;;;5148312;27;20055;-71
2021/12/21 02:22:23;;;;;;;13.52;5.55;;;-1.00;99.90;;;;;;5133108;27;20114;-71
2021/12/21 02:25:04;;;;;;;10.60;6.10;;;-1.00;99.90;;;;;;5149029;27;20099;-71
2021/12/21 02:27:43;;;;;;;10.98;5.95;;;-0.90;99.90;;;;;;5131320;27;20486;-71
2021/12/21 02:30:14;;;;;;;12.68;6.25;;;-0.90;99.90;;;;;;5129761;27;20053;-71
2021/12/21 02:32:40;;;;;;;10.63;6.20;;;-0.90;99.90;;;;;;5129700;27;20048;-71
2021/12/21 02:35:07;;;;;;;10.63;5.82;;;-1.00;99.90;;;;;;5131552;27;20110;-71
2021/12/21 02:37:32;;;;;;;11.45;5.88;;;-1.00;99.90;;;;;;5130501;27;20053;-71
2021/12/21 02:39:58;;;;;;;15.18;6.80;;;-1.00;99.90;;;;;;5131359;27;20039;-71
2021/12/21 02:42:23;;;;;;;12.00;6.63;;;-1.00;99.90;;;;;;5127283;27;20034;-71
2021/12/21 02:44:50;;;;;;;12.55;6.63;;;-1.00;99.90;;;;;;5131555;27;20375;-71
2021/12/21 02:47:15;;;;;;;14.23;7.60;;;-1.00;99.90;;;;;;5130777;27;20042;-71
2021/12/21 02:49:41;;;;;;;12.43;6.80;;;-1.00;99.90;;;;;;5131737;27;20092;-71
2021/12/21 02:52:07;;;;;;;14.30;7.72;;;-1.10;99.90;;;;;;5130304;27;20468;-71
2021/12/21 02:54:33;;;;;;;13.63;7.20;;;-1.10;99.90;;;;;;5146503;27;20396;-71
2021/12/21 02:56:58;;;;;;;13.45;8.10;;;-1.10;99.90;;;;;;5127766;27;20055;-71
2021/12/21 02:59:24;;;;;;;12.57;8.20;;;-1.20;99.90;;;;;;5150263;27;20038;-71
2021/12/21 03:01:50;;;;;;;18.30;8.68;;;-1.20;99.90;;;;;;5127857;27;20067;-71
2021/12/21 03:04:16;;;;;;;15.15;8.55;;;-1.30;99.90;;;;;;5129917;27;20433;-71
2021/12/21 03:07:46;;;;;;;17.42;8.85;;;-1.30;99.90;;;;;;5129637;27;20039;-71
2021/12/21 03:09:40;;;;;;;12.52;7.78;;;-1.40;99.90;;;;;;5125438;27;20103;-71
2021/12/21 03:12:12;;;;;;;18.65;8.35;;;-1.40;99.90;;;;;;5128257;27;20042;-71
2021/12/21 03:14:40;;;;;;;18.10;8.45;;;-1.50;99.90;;;;;;5145659;27;20088;-71
2021/12/21 03:17:07;;;;;;;17.25;8.02;;;-1.50;99.90;;;;;;5124179;27;20078;-71
2021/12/21 03:19:33;;;;;;;16.88;8.60;;;-1.50;99.90;;;;;;5146687;27;20043;-71
2021/12/21 03:21:58;;;;;;;17.02;9.30;;;-1.50;99.90;;;;;;5131340;27;20084;-71
2021/12/21 03:24:24;;;;;;;15.00;8.15;;;-1.50;99.90;;;;;;5127414;27;20510;-71
2021/12/21 03:26:50;;;;;;;11.85;7.57;;;-1.60;99.90;;;;;;5124399;27;20038;-70
2021/12/21 03:29:16;;;;;;;16.15;8.13;;;-1.60;99.90;;;;;;5128425;27;20493;-71
2021/12/21 03:31:42;;;;;;;12.68;7.90;;;-1.60;99.90;;;;;;5128923;27;20478;-71
2021/12/21 03:34:08;;;;;;;17.50;8.77;;;-1.60;99.90;;;;;;5148830;27;20077;-71
2021/12/21 03:36:35;;;;;;;14.82;7.97;;;-1.60;99.90;;;;;;5129666;27;20058;-71
2021/12/21 03:39:16;;;;;;;16.02;7.50;;;-1.60;99.90;;;;;;5127157;27;20047;-71
2021/12/21 03:41:46;;;;;;;13.18;7.68;;;-1.60;99.90;;;;;;5131447;27;20470;-71
2021/12/21 03:44:12;;;;;;;14.15;7.45;;;-1.60;99.90;;;;;;5149771;27;20039;-68
2021/12/21 03:46:46;;;;;;;14.45;8.52;;;-1.60;99.90;;;;;;5129451;27;20091;-71
2021/12/21 03:50:00;;;;;;;12.73;6.88;;;-1.60;99.90;;;;;;5130862;27;20091;-69
2021/12/21 03:51:59;;;;;;;13.85;7.55;;;-1.60;99.90;;;;;;5118429;27;20510;-71
2021/12/21 03:54:25;;;;;;;11.40;6.68;;;-1.60;99.90;;;;;;5127307;27;20035;-71
2021/12/21 03:56:52;;;;;;;12.40;7.03;;;-1.60;99.90;;;;;;5127490;27;20043;-71
2021/12/21 03:59:18;;;;;;;11.13;6.63;;;-1.60;99.90;;;;;;5123282;27;20054;-71
2021/12/21 04:01:46;;;;;;;14.55;7.55;;;-1.70;99.90;;;;;;5123754;28;20110;-71
2021/12/21 04:04:11;;;;;;;15.95;6.82;;;-1.70;99.90;;;;;;5128992;27;20087;-71
2021/12/21 04:06:37;;;;;;;14.32;6.13;;;-1.70;99.90;;;;;;5126740;27;20035;-71
2021/12/21 04:09:05;;;;;;;12.60;6.90;;;-1.70;99.90;;;;;;5127681;28;20051;-71
2021/12/21 04:11:32;;;;;;;12.30;6.65;;;-1.70;99.90;;;;;;5117462;28;20113;-71
2021/12/21 04:13:58;;;;;;;15.07;7.50;;;-1.70;99.90;;;;;;5128260;28;20035;-71
2021/12/21 04:16:24;;;;;;;13.27;7.57;;;-1.70;99.90;;;;;;5119523;28;20040;-71
2021/12/21 04:18:49;;;;;;;15.45;7.68;;;-1.70;99.90;;;;;;5125891;28;20099;-71
2021/12/21 04:21:15;;;;;;;16.52;7.60;;;-1.70;99.90;;;;;;5124573;28;20031;-71
2021/12/21 04:23:42;;;;;;;18.73;8.73;;;-1.70;99.90;;;;;;5125719;28;20035;-71
2021/12/21 04:26:10;;;;;;;13.38;7.13;;;-1.70;99.90;;;;;;5126878;28;20035;-71
2021/12/21 04:28:36;;;;;;;12.38;7.05;;;-1.70;99.90;;;;;;5123665;28;20485;-71
2021/12/21 04:31:03;;;;;;;13.60;7.72;;;-1.70;99.90;;;;;;5123263;28;20087;-71
2021/12/21 04:33:28;;;;;;;13.27;8.02;;;-1.80;99.90;;;;;;5124088;27;20122;-71
2021/12/21 04:35:54;;;;;;;13.15;7.95;;;-1.80;99.90;;;;;;5127127;28;20188;-71
2021/12/21 04:38:21;;;;;;;11.98;7.57;;;-1.90;99.90;;;;;;5127712;28;20035;-68
2021/12/21 04:40:51;;;;;;;17.38;8.63;;;-1.90;99.90;;;;;;5124330;28;20229;-69
2021/12/21 04:43:17;;;;;;;14.88;8.43;;;-1.90;99.90;;;;;;5126379;28;20035;-69
2021/12/21 04:45:42;;;;;;;15.32;7.85;;;-1.90;99.90;;;;;;5125439;28;20046;-69
2021/12/21 04:48:08;;;;;;;17.15;8.88;;;-1.90;99.90;;;;;;5122707;28;20043;-69
2021/12/21 04:50:34;;;;;;;13.50;8.55;;;-1.90;99.90;;;;;;5132691;27;20058;-69
2021/12/21 04:52:59;;;;;;;13.90;8.93;;;-1.90;99.90;;;;;;5132526;27;20078;-69
2021/12/21 04:55:25;;;;;;;14.85;8.63;;;-1.90;99.90;;;;;;5148666;27;20409;-69
2021/12/21 04:57:51;;;;;;;15.80;8.20;;;-1.80;99.90;;;;;;5151785;27;20131;-69
2021/12/21 05:00:16;;;;;;;14.13;8.10;;;-1.80;99.90;;;;;;5133562;27;20045;-69
2021/12/21 05:02:42;;;;;;;12.63;7.90;;;-1.80;99.90;;;;;;5151463;27;20400;-69
2021/12/21 05:05:08;;;;;;;16.27;8.60;;;-1.80;99.90;;;;;;5129379;27;20038;-69
2021/12/21 05:07:36;;;;;;;14.95;7.80;;;-1.80;99.90;;;;;;5125493;27;20435;-69
2021/12/21 05:10:03;;;;;;;13.45;7.63;;;-1.80;99.90;;;;;;5146865;27;20039;-69
2021/12/21 05:12:29;;;;;;;12.02;7.85;;;-1.70;99.90;;;;;;5126172;27;20515;-69
2021/12/21 05:14:56;;;;;;;19.08;9.48;;;-1.70;99.90;;;;;;5129540;27;20130;-69
2021/12/21 05:17:22;;;;;;;18.83;9.38;;;-1.80;99.90;;;;;;5152700;27;20438;-69
2021/12/21 05:19:47;;;;;;;11.77;6.70;;;-1.80;99.90;;;;;;5149833;27;20100;-69
2021/12/21 05:22:15;;;;;;;14.95;7.55;;;-1.80;99.90;;;;;;5131679;27;20047;-69
2021/12/21 05:24:41;;;;;;;15.45;8.82;;;-1.80;99.90;;;;;;5132775;27;20049;-69
2021/12/21 05:27:08;;;;;;;14.05;8.27;;;-1.80;99.90;;;;;;5129275;27;20078;-69
2021/12/21 05:29:34;;;;;;;15.55;8.48;;;-1.80;99.90;;;;;;5130795;27;20039;-70
2021/12/21 05:32:00;;;;;;;18.02;9.40;;;-1.80;99.90;;;;;;5131434;27;20866;-70
2021/12/21 05:34:27;;;;;;;16.55;8.52;;;-1.80;99.90;;;;;;5135240;27;20047;-70
2021/12/21 05:36:53;;;;;;;14.82;7.53;;;-1.90;99.90;;;;;;5128689;27;20039;-69
2021/12/21 05:39:22;;;;;;;15.82;8.85;;;-1.90;99.90;;;;;;5132081;27;20099;-70
2021/12/21 05:41:51;;;;;;;13.57;7.45;;;-1.90;99.90;;;;;;5128476;27;20050;-70
2021/12/21 05:44:19;;;;;;;15.68;7.75;;;-1.90;99.90;;;;;;5149277;27;20035;-69
2021/12/21 05:46:44;;;;;;;13.15;7.15;;;-1.90;99.90;;;;;;5130036;27;20115;-70
2021/12/21 05:49:10;;;;;;;16.02;8.55;;;-1.90;99.90;;;;;;5130343;27;20039;-70
2021/12/21 05:51:36;;;;;;;18.92;8.25;;;-2.00;99.90;;;;;;5129327;27;20074;-70
2021/12/21 05:54:02;;;;;;;16.45;8.40;;;-1.60;99.90;;;;;;5134311;27;20089;-70
2021/12/21 05:56:28;;;;;;;14.57;7.82;;;-2.00;99.90;;;;;;5131000;27;20046;-70
2021/12/21 05:58:54;;;;;;;13.35;6.90;;;-2.10;99.90;;;;;;5146656;27;20038;-70
2021/12/21 06:01:19;;;;;;;14.65;7.28;;;-2.10;99.90;;;;;;5131334;27;20061;-70
2021/12/21 06:03:45;;;;;;;13.10;7.05;;;-2.20;99.90;;;;;;5111845;27;20427;-69
2021/12/21 06:06:14;;;;;;;12.93;7.68;;;-2.30;99.90;;;;;;5072969;28;20132;-70
2021/12/21 06:08:42;;;;;;;16.17;8.27;;;-2.20;99.90;;;;;;5071689;28;20134;-71
2021/12/21 06:11:08;;;;;;;13.13;7.05;;;-1.90;99.90;;;;;;5085355;28;20085;-71
2021/12/21 06:27:23;;;;;;;12.05;6.22;;;-2.10;99.90;;;;;;5088165;28;20044;-70
2021/12/21 06:29:49;;;;;;;12.77;6.85;;;-2.00;99.90;;;;;;5090522;28;20056;-70
2021/12/21 06:32:15;;;;;;;11.75;6.80;;;-2.00;99.90;;;;;;5090398;28;20051;-70
2021/12/21 06:34:41;;;;;;;10.23;5.93;;;-2.00;99.90;;;;;;5073446;28;20119;-70
2021/12/21 06:37:07;;;;;;;11.00;6.00;;;-2.10;99.90;;;;;;5090006;28;20040;-70
2021/12/21 06:39:33;;;;;;;9.93;5.53;;;-2.00;99.90;;;;;;5073182;28;20111;-70
2021/12/21 06:41:59;;;;;;;14.90;6.38;;;-2.00;99.90;;;;;;5090613;28;20052;-69
2021/12/21 06:44:25;;;;;;;12.68;7.03;;;-2.00;99.90;;;;;;5089237;28;20044;-69
2021/12/21 06:52:20;;;;;;;12.27;6.68;;;-1.80;99.90;;;;;;5072191;28;20052;-71
2021/12/21 06:54:46;;;;;;;13.88;7.18;;;-2.10;99.90;;;;;;5071885;28;20048;-69
2021/12/21 06:57:11;;;;;;;11.48;6.68;;;-2.10;99.90;;;;;;5088904;28;20069;-70
2021/12/21 06:59:37;;;;;;;10.50;6.35;;;-2.20;99.90;;;;;;5089630;28;20036;-71
2021/12/21 07:02:03;;;;;;;10.95;6.10;;;-2.20;99.90;;;;;;5070960;28;20047;-72
2021/12/21 07:04:29;;;;;;;12.00;5.60;;;-2.20;99.90;;;;;;5071579;28;20529;-72
2021/12/21 07:06:57;;;;;;;14.10;8.45;;;-2.20;99.90;;;;;;5069335;28;20079;-71
2021/12/21 07:09:32;;;;;;;12.35;7.00;;;-2.20;99.90;;;;;;5069821;28;20032;-71
2021/12/21 07:12:20;;;;;;;11.88;6.10;;;-2.20;99.90;;;;;;5066022;28;20139;-71
2021/12/21 07:20:12;;;;;;;11.23;6.60;;;-2.20;99.90;;;;;;5087637;28;19920;-72
2021/12/21 07:22:37;;;;;;;10.52;5.35;;;-2.20;99.90;;;;;;5070568;28;20044;-72
2021/12/21 07:25:04;;;;;;;12.85;5.88;;;-2.20;99.90;;;;;;5069106;28;20409;-72
2021/12/21 07:27:29;;;;;;;12.07;6.53;;;-2.20;99.90;;;;;;5090423;28;20044;-72
2021/12/21 07:29:55;;;;;;;10.30;6.20;;;-2.20;99.90;;;;;;5070791;28;20124;-72
2021/12/21 07:32:20;;;;;;;11.57;6.70;;;-2.20;99.90;;;;;;5071768;28;20040;-72
2021/12/21 07:34:46;;;;;;;12.48;6.10;;;-2.20;99.90;;;;;;5070627;28;20447;-72
2021/12/21 07:37:11;;;;;;;13.70;6.55;;;-2.20;99.90;;;;;;5089607;28;20044;-72
2021/12/21 07:39:38;;;;;;;11.70;5.90;;;-2.20;99.90;;;;;;5089424;28;20399;-72
2021/12/21 07:42:07;;;;;;;13.68;5.95;;;-2.10;99.90;;;;;;5070612;28;20105;-72
2021/12/21 07:44:32;;;;;;;12.02;6.05;;;-2.10;99.90;;;;;;5068007;28;20040;-72
2021/12/21 07:46:58;;;;;;;11.82;6.68;;;-2.10;99.90;;;;;;5070549;28;20036;-72
2021/12/21 07:49:24;;;;;;;13.65;7.63;;;-2.10;99.90;;;;;;5070973;28;20036;-72
2021/12/21 07:51:50;;;;;;;17.15;8.23;;;-2.10;99.90;;;;;;5070546;28;20146;-72
2021/12/21 07:54:17;;;;;;;17.70;8.75;;;-2.10;99.90;;;;;;5072671;28;20067;-72
2021/12/21 07:56:43;;;;;;;15.75;8.40;;;-2.10;99.90;;;;;;5062865;28;20048;-72
2021/12/21 07:59:11;;;;;;;15.10;8.05;;;-1.80;99.90;;;;;;5071587;28;20040;-73
2021/12/21 08:01:39;;;;;;;15.52;8.25;;;-2.10;99.90;;;;;;5086701;28;20761;-73
2021/12/21 08:04:07;;;;;;;17.23;9.25;;;-2.10;99.90;;;;;;5070742;28;20083;-72
2021/12/21 08:06:34;;;;;;;12.80;6.85;;;-2.10;99.90;;;;;;5071012;28;20040;-73
2021/12/21 08:09:02;;;;;;;12.18;7.47;;;-2.10;99.90;;;;;;5071019;28;20036;-74
2021/12/21 08:12:11;;;;;;;11.07;6.78;;;-2.20;99.90;;;;;;5042799;28;20056;-73
2021/12/21 08:14:13;;;;;;;13.07;6.85;;;-2.10;99.90;;;;;;5050546;28;20572;-72
2021/12/21 08:16:39;;;;;;;10.88;6.90;;;-2.10;99.90;;;;;;5052996;28;20130;-72
2021/12/21 08:19:04;;;;;;;13.27;6.75;;;-2.00;99.90;;;;;;5053191;28;20033;-72
2021/12/21 08:21:31;;;;;;;10.60;6.28;;;-2.00;99.90;;;;;;5057754;28;20044;-73
2021/12/21 08:23:57;;;;;;;13.75;7.13;;;-2.00;99.90;;;;;;5058543;28;20068;-73
2021/12/21 08:26:23;;;;;;;13.25;6.28;;;-2.00;99.90;;;;;;5052252;28;20532;-72
2021/12/21 08:28:49;;;;;;;13.25;8.05;;;-1.90;99.90;;;;;;5053849;28;21587;-72
2021/12/21 08:31:14;;;;;;;13.65;8.15;;;-1.90;99.90;;;;;;5047209;28;20044;-72
2021/12/21 08:33:41;;;;;;;13.68;7.55;;;-1.90;99.90;;;;;;5068962;28;20913;-72
2021/12/21 08:36:08;;;;;;;13.20;8.35;;;-1.90;99.90;;;;;;5058363;28;20036;-72
2021/12/21 08:38:37;;;;;;;15.38;8.88;;;-1.90;99.90;;;;;;5049804;28;20139;-73
2021/12/21 08:41:03;;;;;;;15.52;7.50;;;-1.90;99.90;;;;;;5044075;28;20127;-72
2021/12/21 08:43:31;;;;;;;11.82;7.93;;;-2.00;99.90;;;;;;5061111;28;20048;-72
2021/12/21 08:45:57;;;;;;;20.02;9.93;;;-1.90;99.90;;;;;;5052084;28;20056;-72
2021/12/21 08:48:24;;;;;;;16.27;9.48;;;-1.90;99.90;;;;;;5058205;28;20376;-72
2021/12/21 08:50:55;;;;;;;16.17;10.43;;;-1.90;99.90;;;;;;5057464;28;20060;-73
2021/12/21 08:53:24;;;;;;;16.45;10.65;;;-1.90;99.90;;;;;;5056813;28;20154;-73
2021/12/21 08:55:51;;;;;;;18.65;10.73;;;-1.80;99.90;;;;;;5054318;28;20048;-72
2021/12/21 08:58:17;;;;;;;16.73;11.13;;;-1.80;99.90;;;;;;5058991;28;20044;-73
2021/12/21 09:00:43;;;;;;;13.18;9.02;;;-1.80;99.90;;;;;;5049593;28;20074;-72
2021/12/21 09:03:10;;;;;;;13.65;9.02;;;-1.80;99.90;;;;;;5048517;28;20048;-72
2021/12/21 09:05:36;;;;;;;14.95;9.43;;;-1.80;99.90;;;;;;5059808;28;20063;-72
2021/12/21 09:08:03;;;;;;;14.70;9.73;;;-1.80;99.90;;;;;;5058315;28;20054;-73
2021/12/21 09:10:30;;;;;;;23.10;10.00;;;-1.80;99.90;;;;;;5072473;28;20059;-72
2021/12/21 09:12:57;;;;;;;14.80;9.88;;;-1.70;99.90;;;;;;5053717;28;20056;-72
2021/12/21 09:15:25;;;;;;;17.98;9.50;;;-1.70;99.90;;;;;;5048988;28;20102;-72
2021/12/21 09:17:51;;;;;;;20.65;11.07;;;-1.70;99.90;;;;;;5070987;28;20048;-72
2021/12/21 09:20:22;;;;;;;14.25;9.30;;;-1.70;99.90;;;;;;5048440;28;20059;-72
2021/12/21 09:22:48;;;;;;;19.30;11.13;;;-1.70;99.90;;;;;;5038528;28;20140;-72
2021/12/21 09:25:15;;;;;;;20.50;11.32;;;-1.60;99.90;;;;;;5046893;28;20044;-72
2021/12/21 09:27:41;;;;;;;17.95;10.80;;;-1.60;99.90;;;;;;5066702;28;20052;-73
2021/12/21 09:30:10;;;;;;;16.25;10.05;;;-1.60;99.90;;;;;;5058169;28;20047;-73
2021/12/21 09:32:36;;;;;;;19.40;11.25;;;-1.60;99.90;;;;;;5039639;28;20134;-72
2021/12/21 09:35:01;;;;;;;20.65;12.52;;;-1.60;99.90;;;;;;5050440;28;20089;-72
2021/12/21 09:37:27;;;;;;;19.98;11.45;;;-1.50;99.90;;;;;;5050191;28;20087;-72
2021/12/21 09:39:55;;;;;;;17.67;10.93;;;-1.50;99.90;;;;;;5052259;28;20209;-72
2021/12/21 09:42:31;;;;;;;22.40;11.95;;;-1.50;99.90;;;;;;5039734;28;20052;-72
2021/12/21 09:44:58;;;;;;;18.45;10.65;;;-1.40;99.90;;;;;;5060399;28;20701;-72
2021/12/21 09:47:24;;;;;;;20.88;10.85;;;-1.40;99.90;;;;;;5068836;28;20857;-73
2021/12/21 09:49:50;;;;;;;21.00;12.13;;;-1.30;99.90;;;;;;5044532;28;20127;-73
2021/12/21 09:52:23;;;;;;;25.30;11.95;;;-1.30;99.90;;;;;;5047232;28;20454;-73
2021/12/21 09:54:49;;;;;;;23.75;13.13;;;-1.30;99.90;;;;;;5066615;28;20048;-72
2021/12/21 09:57:17;;;;;;;21.92;12.65;;;-1.30;99.90;;;;;;5060104;28;20082;-72
2021/12/21 09:59:44;;;;;;;20.35;11.75;;;-1.20;99.90;;;;;;5051841;28;20040;-73
2021/12/21 10:02:10;;;;;;;22.08;12.40;;;-1.20;99.90;;;;;;5063355;28;20056;-72
2021/12/21 10:04:49;;;;;;;21.75;12.18;;;-1.10;99.90;;;;;;5044486;28;20048;-72
2021/12/21 10:07:16;;;;;;;22.67;11.82;;;-1.10;99.90;;;;;;5054619;28;20132;-73
2021/12/21 10:09:43;;;;;;;24.17;10.82;;;-1.10;99.90;;;;;;5052656;28;20391;-73
2021/12/21 10:12:31;;;;;;;21.80;12.00;;;-1.00;99.90;;;;;;5048793;28;20059;-73
2021/12/21 10:15:07;;;;;;;18.73;11.00;;;-1.00;99.90;;;;;;5068056;28;20052;-73
2021/12/21 10:17:35;;;;;;;25.35;11.20;;;-0.90;99.90;;;;;;5050924;28;20045;-72
2021/12/21 10:20:08;;;;;;;22.45;11.38;;;-0.90;99.90;;;;;;5052914;28;20093;-72
2021/12/21 10:22:34;;;;;;;23.15;12.30;;;-0.80;99.90;;;;;;5043309;28;20052;-72
2021/12/21 10:25:00;;;;;;;23.63;12.13;;;-0.80;99.90;;;;;;5045737;28;20059;-73
2021/12/21 10:27:27;;;;;;;18.00;10.85;;;-0.70;99.90;;;;;;5056992;28;20040;-74
2021/12/21 10:29:58;;;;;;;22.58;11.90;;;-0.60;99.90;;;;;;5051822;28;20101;-74
2021/12/21 10:32:30;;;;;;;24.30;11.77;;;-0.60;99.90;;;;;;5046812;28;20069;-74
2021/12/21 10:35:02;;;;;;;23.02;12.13;;;-0.50;99.90;;;;;;5074897;28;20105;-74
2021/12/21 10:37:37;;;;;;;20.23;11.15;;;-0.50;99.90;;;;;;5048597;28;20438;-74
2021/12/21 10:40:23;;;;;;;19.88;11.18;;;-0.40;99.90;;;;;;5045979;28;20071;-74
2021/12/21 10:42:54;;;;;;;20.13;11.25;;;-0.40;99.90;;;;;;5043291;28;20059;-74
2021/12/21 10:45:25;;;;;;;19.85;10.30;;;-0.30;99.90;;;;;;5051340;28;20486;-74
2021/12/21 10:47:51;;;;;;;24.52;11.00;;;-0.20;99.90;;;;;;5044145;28;20429;-74
2021/12/21 10:50:16;;;;;;;18.90;10.60;;;-0.10;99.90;;;;;;5047751;28;20066;-74
2021/12/21 10:52:49;;;;;;;18.73;10.43;;;-0.10;99.90;;;;;;5042375;28;20066;-74
2021/12/21 10:55:15;;;;;;;22.05;11.88;;;0.00;99.90;;;;;;5053847;28;20082;-75
2021/12/21 10:57:41;;;;;;;18.13;10.73;;;0.10;99.90;;;;;;5051138;28;20056;-74
2021/12/21 11:00:14;;;;;;;17.88;9.80;;;0.20;99.90;;;;;;5047645;28;20048;-74
2021/12/21 11:02:40;;;;;;;18.73;9.95;;;0.30;99.90;;;;;;5050985;28;20047;-75
2021/12/21 11:05:13;;;;;;;19.10;10.32;;;0.40;99.90;;;;;;5069898;28;20445;-75
2021/12/21 11:10:28;;;;;;;17.27;9.63;;;0.60;99.90;;;;;;5062522;28;20106;-75
2021/12/21 11:12:57;;;;;;;21.75;9.32;;;0.70;99.90;;;;;;5037196;28;20048;-75
2021/12/21 11:15:41;;;;;;;18.27;9.20;;;0.80;99.90;;;;;;5055877;28;20090;-75
2021/12/21 11:18:08;;;;;;;20.92;9.85;;;1.00;99.90;;;;;;5046145;28;20052;-74
2021/12/21 11:20:37;;;;;;;16.80;8.77;;;1.10;99.90;;;;;;5064186;28;20059;-73
2021/12/21 11:23:04;;;;;;;15.15;7.72;;;1.20;99.90;;;;;;5062081;28;20543;-73
2021/12/21 11:25:31;;;;;;;12.85;7.15;;;1.30;99.90;;;;;;5051540;28;20551;-74
2021/12/21 11:27:59;;;;;;;15.57;7.68;;;1.50;99.90;;;;;;5054141;28;20048;-74
2021/12/21 11:30:24;;;;;;;12.68;7.15;;;1.60;99.90;;;;;;5043609;28;20052;-74
2021/12/21 11:32:52;;;;;;;13.52;7.20;;;1.70;99.90;;;;;;5056874;28;20048;-74
2021/12/21 11:37:57;;;;;;;16.38;7.55;;;2.00;99.90;;;;;;5060633;28;20107;-74
2021/12/21 11:40:31;;;;;;;13.27;6.88;;;2.10;99.90;;;;;;5067403;28;20051;-74
2021/12/21 11:43:11;;;;;;;11.40;6.45;;;2.20;99.90;;;;;;5039954;28;20044;-74
2021/12/21 11:46:00;;;;;;;15.88;6.90;;;2.30;99.90;;;;;;5049182;28;20044;-74
2021/12/21 11:48:42;;;;;;;15.80;6.38;;;2.50;99.90;;;;;;5072146;28;20170;-74
2021/12/21 11:51:10;;;;;;;13.88;6.88;;;2.60;99.90;;;;;;5044603;28;20051;-74
2021/12/21 11:53:37;;;;;;;12.02;6.15;;;2.70;99.90;;;;;;5053075;28;20135;-74
2021/12/21 11:56:05;;;;;;;12.95;6.15;;;2.80;99.90;;;;;;5074700;28;20051;-74
2021/12/21 11:58:40;;;;;;;14.70;6.65;;;2.90;99.90;;;;;;5054215;28;20052;-74
2021/12/21 12:01:15;;;;;;;12.70;6.25;;;3.00;99.90;;;;;;5049456;28;20054;-74
2021/12/21 12:03:52;;;;;;;16.50;7.03;;;3.10;99.90;;;;;;5071742;28;20076;-75
2021/12/21 12:06:17;;;;;;;14.43;6.95;;;3.30;99.90;;;;;;5055836;28;20048;-74
2021/12/21 12:08:50;;;;;;;15.45;7.70;;;3.30;99.90;;;;;;5057056;28;20098;-74
2021/12/21 12:11:36;;;;;;;13.45;6.50;;;3.40;99.90;;;;;;5037469;28;20553;-75
2021/12/21 12:14:14;;;;;;;13.35;6.20;;;3.40;99.90;;;;;;5051954;28;20044;-75
2021/12/21 12:16:56;;;;;;;14.13;6.18;;;3.50;99.90;;;;;;5051992;28;20055;-76
2021/12/21 12:19:34;;;;;;;16.45;5.80;;;3.50;99.90;;;;;;5048649;28;20479;-76
2021/12/21 12:22:06;;;;;;;12.80;5.55;;;3.50;99.90;;;;;;5066397;28;20048;-76
2021/12/21 12:24:37;;;;;;;8.65;5.05;;;3.50;99.90;;;;;;5053594;28;20440;-75
2021/12/21 12:27:20;;;;;;;12.70;5.50;;;3.50;99.90;;;;;;5054434;28;20048;-76
2021/12/21 12:29:49;;;;;;;11.90;5.57;;;3.60;99.90;;;;;;5052010;28;20044;-76
2021/12/21 12:32:16;;;;;;;12.93;5.97;;;3.60;99.90;;;;;;5047899;28;20055;-76
2021/12/21 12:34:43;;;;;;;13.27;5.13;;;3.60;99.90;;;;;;5070009;28;20119;-76
2021/12/21 12:37:16;;;;;;;12.63;5.50;;;3.60;99.90;;;;;;5053850;28;20051;-77
2021/12/21 12:39:44;;;;;;;11.63;4.82;;;3.60;99.90;;;;;;5070444;28;20129;-76
2021/12/21 12:42:13;;;;;;;12.10;4.95;;;3.70;99.90;;;;;;5054832;28;20048;-77
2021/12/21 12:44:41;;;;;;;11.75;5.22;;;3.60;99.90;;;;;;5054729;28;20246;-76
2021/12/21 12:47:11;;;;;;;10.40;4.60;;;3.60;99.90;;;;;;5050675;28;20063;-77
2021/12/21 12:49:42;;;;;;;10.40;4.85;;;3.60;99.90;;;;;;5053648;28;20119;-73
2021/12/21 12:52:17;;;;;;;12.13;5.13;;;3.60;99.90;;;;;;5063494;28;20044;-75
2021/12/21 12:54:49;;;;;;;10.63;4.55;;;3.60;99.90;;;;;;5053755;28;20127;-75
2021/12/21 12:57:33;;;;;;;11.70;5.15;;;3.50;99.90;;;;;;5052224;28;20055;-75
2021/12/21 13:00:13;;;;;;;11.48;4.45;;;3.50;99.90;;;;;;5047552;28;20127;-74
2021/12/21 13:02:59;;;;;;;8.45;4.20;;;3.50;99.90;;;;;;5047491;28;20168;-74
2021/12/21 13:05:36;;;;;;;9.38;4.05;;;3.40;99.90;;;;;;5054561;28;20187;-75
2021/12/21 13:08:11;;;;;;;10.95;3.45;;;3.40;99.90;;;;;;5051398;28;20055;-74
2021/12/21 13:10:39;;;;;;;9.90;4.00;;;3.30;99.90;;;;;;5068037;28;20047;-73
2021/12/21 13:13:05;;;;;;;10.55;3.83;;;3.30;99.90;;;;;;5047664;28;20067;-73
2021/12/21 13:15:36;;;;;;;7.43;3.53;;;3.30;99.90;;;;;;5057687;28;20044;-74
2021/12/21 13:18:05;;;;;;;10.05;4.47;;;3.20;99.90;;;;;;5073323;28;20040;-75
2021/12/21 13:20:35;;;;;;;8.93;4.15;;;3.20;99.90;;;;;;5055553;28;20514;-75
2021/12/21 13:23:08;;;;;;;11.18;4.13;;;3.10;99.90;;;;;;5062664;28;20055;-76
2021/12/21 13:25:34;;;;;;;9.52;3.47;;;3.10;99.90;;;;;;5050906;28;20055;-74
2021/12/21 13:28:18;;;;;;;9.15;3.92;;;3.00;99.90;;;;;;5053431;28;20055;-74
2021/12/21 13:30:48;;;;;;;8.27;4.13;;;3.00;99.90;;;;;;5048621;28;20047;-74
2021/12/21 13:33:22;;;;;;;11.57;4.10;;;2.90;99.90;;;;;;5056903;28;20077;-75
2021/12/21 13:35:48;;;;;;;9.80;4.45;;;2.90;99.90;;;;;;5054399;28;20480;-75
2021/12/21 13:38:16;;;;;;;10.55;5.20;;;2.80;99.90;;;;;;5051449;28;20075;-76
2021/12/21 13:40:41;;;;;;;15.18;4.60;;;2.80;99.90;;;;;;5048337;28;20101;-76
2021/12/21 13:43:13;;;;;;;11.50;4.15;;;2.80;99.90;;;;;;5052032;28;20043;-76
2021/12/21 13:45:42;;;;;;;12.05;4.25;;;2.70;99.90;;;;;;5054329;28;20047;-76